Time;durP1;ratioP1;P1;durP2;ratioP2;P2;SDS_P1;SDS_P2;PMS_P1;PMS_P2;Temp;Humidity;BMP_temperature;BMP_pressure;BME280_temperature;BME280_humidity;BME280_pressure;Samples;Min_cycle;Max_cycle;Signal;HPM_P1;HPM_P2
2023/10/05 00:04:32;;;;;;;735.72;327.60;;;;;;;;;;4927331;29;20448;-77
2023/10/05 00:06:59;;;;;;;742.08;326.17;;;;;;;;;;4928212;29;20494;-77
2023/10/05 00:09:27;;;;;;;728.65;316.52;;;;;;;;;;4927789;29;20532;-77
2023/10/05 00:11:55;;;;;;;728.05;330.02;;;;;;;;;;4928580;29;20933;-77
2023/10/05 00:14:24;;;;;;;736.55;340.42;;;;;;;;;;4927745;29;20474;-77
2023/10/05 00:16:55;;;;;;;742.95;327.13;;;;;;;;;;4929316;29;20490;-77
2023/10/05 00:19:27;;;;;;;735.33;338.70;;;;;;;;;;4926513;29;20435;-77
2023/10/05 00:21:56;;;;;;;729.70;326.65;;;;;;;;;;4924823;29;20444;-77
2023/10/05 00:26:58;;;;;;;717.70;336.50;;;;;;;;;;4931148;29;20471;-77
2023/10/05 00:29:29;;;;;;;695.53;339.73;;;;;;;;;;4933262;29;20478;-77
2023/10/05 00:32:00;;;;;;;656.25;336.88;;;;;;;;;;4922165;29;20441;-77
2023/10/05 00:34:32;;;;;;;723.28;352.70;;;;;;;;;;4929263;29;20467;-77
2023/10/05 00:36:59;;;;;;;714.55;358.55;;;;;;;;;;4929501;29;20600;-77
2023/10/05 00:39:31;;;;;;;721.90;358.95;;;;;;;;;;4930473;29;20440;-77
2023/10/05 00:42:10;;;;;;;559.83;335.20;;;;;;;;;;4927563;29;20910;-77
2023/10/05 00:44:41;;;;;;;587.13;352.08;;;;;;;;;;4926789;29;20475;-77
2023/10/05 00:47:12;;;;;;;576.28;353.70;;;;;;;;;;4926619;29;20470;-77
2023/10/05 00:50:01;;;;;;;588.20;345.85;;;;;;;;;;4934500;29;20461;-76
2023/10/05 00:52:30;;;;;;;577.58;347.08;;;;;;;;;;4934089;29;20806;-76
2023/10/05 00:55:05;;;;;;;629.10;359.73;;;;;;;;;;4933153;29;20447;-76
2023/10/05 00:57:34;;;;;;;569.53;350.10;;;;;;;;;;4929835;29;20485;-76
2023/10/05 01:02:34;;;;;;;564.97;340.08;;;;;;;;;;4930128;29;20514;-76
2023/10/05 01:05:15;;;;;;;587.35;346.75;;;;;;;;;;4933741;29;20850;-76
2023/10/05 01:07:43;;;;;;;611.58;354.52;;;;;;;;;;4931623;29;20439;-76
2023/10/05 01:12:51;;;;;;;580.90;333.00;;;;;;;;;;4929324;29;20446;-77
2023/10/05 01:15:21;;;;;;;543.55;328.02;;;;;;;;;;4930565;29;20446;-77
2023/10/05 01:17:52;;;;;;;589.03;335.47;;;;;;;;;;4931487;29;20470;-77
2023/10/05 01:22:47;;;;;;;567.67;335.40;;;;;;;;;;4931424;29;20526;-77
2023/10/05 01:25:15;;;;;;;601.78;339.63;;;;;;;;;;4928181;29;20444;-76
2023/10/05 01:27:50;;;;;;;593.47;336.92;;;;;;;;;;4932783;29;20451;-75
2023/10/05 01:30:23;;;;;;;623.88;340.92;;;;;;;;;;4929424;29;20447;-76
2023/10/05 01:32:54;;;;;;;580.10;325.50;;;;;;;;;;4928273;29;20876;-76
2023/10/05 01:35:23;;;;;;;568.50;326.08;;;;;;;;;;4929655;29;21164;-76
2023/10/05 01:37:54;;;;;;;668.47;336.17;;;;;;;;;;4928898;29;20471;-76
2023/10/05 01:40:25;;;;;;;571.00;328.57;;;;;;;;;;4922581;29;20446;-76
2023/10/05 01:42:53;;;;;;;558.67;324.35;;;;;;;;;;4924459;29;20442;-76
2023/10/05 01:45:29;;;;;;;602.65;336.25;;;;;;;;;;4932679;29;20527;-76
2023/10/05 01:48:12;;;;;;;624.70;331.75;;;;;;;;;;4926792;29;20512;-76
2023/10/05 01:50:40;;;;;;;619.25;332.27;;;;;;;;;;4908249;29;20441;-76
2023/10/05 01:53:08;;;;;;;597.40;326.02;;;;;;;;;;4928517;29;20772;-76
2023/10/05 01:55:37;;;;;;;612.47;328.87;;;;;;;;;;4929133;29;20435;-75
2023/10/05 01:58:06;;;;;;;637.40;339.00;;;;;;;;;;4930115;29;20450;-75
2023/10/05 02:00:38;;;;;;;574.75;331.98;;;;;;;;;;4926417;29;20480;-76
2023/10/05 02:03:07;;;;;;;593.83;325.80;;;;;;;;;;4922876;29;20502;-76
2023/10/05 02:05:36;;;;;;;617.03;329.93;;;;;;;;;;4931465;29;21244;-76
2023/10/05 02:08:03;;;;;;;678.75;330.95;;;;;;;;;;4926481;29;20473;-76
2023/10/05 02:10:33;;;;;;;698.80;329.80;;;;;;;;;;4931696;29;20447;-76
2023/10/05 02:13:01;;;;;;;696.45;326.67;;;;;;;;;;4929096;29;20441;-76
2023/10/05 02:15:28;;;;;;;703.58;330.33;;;;;;;;;;4923791;29;20522;-77
2023/10/05 02:17:59;;;;;;;708.63;338.58;;;;;;;;;;4931132;29;20451;-76
2023/10/05 02:23:02;;;;;;;697.17;329.48;;;;;;;;;;4924955;29;20562;-75
2023/10/05 02:25:36;;;;;;;690.03;322.25;;;;;;;;;;4928658;29;20455;-76
2023/10/05 02:28:03;;;;;;;702.83;334.23;;;;;;;;;;4923640;29;20533;-75
2023/10/05 02:30:31;;;;;;;675.13;336.02;;;;;;;;;;4923464;29;20514;-76
2023/10/05 02:33:04;;;;;;;574.23;327.43;;;;;;;;;;4925623;29;20450;-75
2023/10/05 02:35:33;;;;;;;708.13;346.40;;;;;;;;;;4930796;29;20524;-76
2023/10/05 02:38:05;;;;;;;709.85;344.80;;;;;;;;;;4931799;29;20435;-76
2023/10/05 02:40:38;;;;;;;692.13;349.73;;;;;;;;;;4931920;29;20458;-76
2023/10/05 02:43:08;;;;;;;664.97;332.60;;;;;;;;;;4915197;29;21031;-75
2023/10/05 02:45:38;;;;;;;674.13;343.13;;;;;;;;;;4928216;29;20810;-76
2023/10/05 02:48:06;;;;;;;662.83;331.95;;;;;;;;;;4928473;29;20440;-76
2023/10/05 02:50:39;;;;;;;676.22;339.98;;;;;;;;;;4926218;29;20447;-76
2023/10/05 02:53:06;;;;;;;664.08;337.00;;;;;;;;;;4931012;29;20531;-76
2023/10/05 02:55:36;;;;;;;665.20;339.63;;;;;;;;;;4913678;29;20524;-76
2023/10/05 02:58:05;;;;;;;683.17;348.58;;;;;;;;;;4911437;29;20445;-76
2023/10/05 03:00:33;;;;;;;662.83;336.88;;;;;;;;;;4921328;29;20928;-76
2023/10/05 03:03:05;;;;;;;661.33;342.02;;;;;;;;;;4921113;29;20442;-76
2023/10/05 03:05:41;;;;;;;655.47;335.52;;;;;;;;;;4927772;29;20447;-76
2023/10/05 03:08:09;;;;;;;642.08;330.67;;;;;;;;;;4929360;29;20445;-77
2023/10/05 03:10:37;;;;;;;652.35;333.40;;;;;;;;;;4928239;29;20453;-76
2023/10/05 03:13:05;;;;;;;654.07;334.23;;;;;;;;;;4920506;29;20436;-76
2023/10/05 03:15:34;;;;;;;647.85;333.25;;;;;;;;;;4925536;29;20983;-76
2023/10/05 03:18:01;;;;;;;649.85;337.45;;;;;;;;;;4927237;29;20541;-76
2023/10/05 03:20:29;;;;;;;658.70;340.87;;;;;;;;;;4929958;29;20443;-77
2023/10/05 03:22:57;;;;;;;657.05;325.85;;;;;;;;;;4931504;29;20443;-77
2023/10/05 03:25:25;;;;;;;659.97;340.75;;;;;;;;;;4923925;29;20456;-77
2023/10/05 03:27:59;;;;;;;657.17;338.55;;;;;;;;;;4925510;29;20500;-77
2023/10/05 03:30:30;;;;;;;680.00;339.65;;;;;;;;;;4929209;29;20532;-76
2023/10/05 03:33:00;;;;;;;672.22;340.10;;;;;;;;;;4929986;29;20443;-76
2023/10/05 03:35:32;;;;;;;678.47;342.25;;;;;;;;;;4930069;29;20475;-77
2023/10/05 03:38:04;;;;;;;647.03;345.00;;;;;;;;;;4906375;29;20980;-76
2023/10/05 03:40:37;;;;;;;647.15;343.75;;;;;;;;;;4904377;29;20467;-76
2023/10/05 03:43:10;;;;;;;641.15;344.25;;;;;;;;;;4925927;29;20866;-76
2023/10/05 03:45:41;;;;;;;645.42;334.98;;;;;;;;;;4928554;29;20437;-76
2023/10/05 03:48:10;;;;;;;641.45;325.52;;;;;;;;;;4924236;29;20961;-76
2023/10/05 03:50:37;;;;;;;641.33;325.65;;;;;;;;;;4928161;29;20482;-76
2023/10/05 03:53:15;;;;;;;645.40;339.48;;;;;;;;;;4909304;29;21218;-76
2023/10/05 03:55:47;;;;;;;644.40;337.65;;;;;;;;;;4928585;29;21033;-75
2023/10/05 03:58:16;;;;;;;651.08;345.55;;;;;;;;;;4927856;29;20940;-75
2023/10/05 04:00:48;;;;;;;642.42;332.20;;;;;;;;;;4928585;29;20489;-75
2023/10/05 04:03:19;;;;;;;642.58;343.98;;;;;;;;;;4926471;29;20490;-75
2023/10/05 04:05:46;;;;;;;645.88;332.08;;;;;;;;;;4924380;29;20431;-76
2023/10/05 04:08:16;;;;;;;643.05;327.92;;;;;;;;;;4929485;29;20993;-75
2023/10/05 04:10:49;;;;;;;637.75;323.45;;;;;;;;;;4926136;29;20495;-76
2023/10/05 04:13:17;;;;;;;634.80;322.52;;;;;;;;;;4924319;29;20440;-75
2023/10/05 04:15:45;;;;;;;637.65;324.45;;;;;;;;;;4920474;29;20510;-78
2023/10/05 04:18:15;;;;;;;639.22;325.58;;;;;;;;;;4926124;29;20466;-76
2023/10/05 04:20:46;;;;;;;643.42;340.88;;;;;;;;;;4928167;29;20465;-76
2023/10/05 04:23:18;;;;;;;633.33;317.73;;;;;;;;;;4928496;29;20838;-76
2023/10/05 04:25:47;;;;;;;646.65;323.90;;;;;;;;;;4918889;29;20540;-75
2023/10/05 04:28:14;;;;;;;654.85;338.88;;;;;;;;;;4926379;29;20432;-75
2023/10/05 04:30:42;;;;;;;646.13;326.27;;;;;;;;;;4922610;29;20471;-76
2023/10/05 04:33:14;;;;;;;644.63;318.20;;;;;;;;;;4921149;29;20490;-75
2023/10/05 04:35:45;;;;;;;656.35;321.95;;;;;;;;;;4921106;29;20447;-75
2023/10/05 04:38:12;;;;;;;651.27;322.33;;;;;;;;;;4923053;29;20447;-75
2023/10/05 04:40:40;;;;;;;647.43;317.00;;;;;;;;;;4924328;29;20473;-76
2023/10/05 04:43:11;;;;;;;642.85;317.98;;;;;;;;;;4925365;29;21194;-76
2023/10/05 04:45:42;;;;;;;632.40;303.67;;;;;;;;;;4928499;29;21117;-75
2023/10/05 04:48:12;;;;;;;631.72;301.42;;;;;;;;;;4929069;29;20439;-74
2023/10/05 04:50:41;;;;;;;640.83;309.13;;;;;;;;;;4929565;29;20948;-75
2023/10/05 04:53:09;;;;;;;637.67;311.42;;;;;;;;;;4928588;29;20550;-76
2023/10/05 04:55:45;;;;;;;641.88;312.20;;;;;;;;;;4925676;29;20452;-75
2023/10/05 04:58:23;;;;;;;641.03;307.88;;;;;;;;;;4926113;29;20830;-76
2023/10/05 05:03:48;;;;;;;639.08;303.05;;;;;;;;;;4926383;29;20881;-76
2023/10/05 05:06:15;;;;;;;639.50;299.55;;;;;;;;;;4924745;29;20444;-76
2023/10/05 05:08:43;;;;;;;637.08;304.75;;;;;;;;;;4929417;29;20443;-76
2023/10/05 05:11:18;;;;;;;630.88;297.73;;;;;;;;;;4928629;29;20941;-75
2023/10/05 05:13:46;;;;;;;628.70;291.02;;;;;;;;;;4928029;29;20482;-75
2023/10/05 05:16:17;;;;;;;625.92;284.92;;;;;;;;;;4923714;29;20446;-76
2023/10/05 05:18:44;;;;;;;631.30;292.05;;;;;;;;;;4929806;29;20453;-76
2023/10/05 05:21:12;;;;;;;630.10;287.60;;;;;;;;;;4929357;29;20471;-77
2023/10/05 05:23:39;;;;;;;627.28;290.75;;;;;;;;;;4932362;29;20439;-77
2023/10/05 05:26:11;;;;;;;628.63;295.02;;;;;;;;;;4934344;29;20578;-77
2023/10/05 05:28:39;;;;;;;649.22;302.10;;;;;;;;;;4924384;29;21031;-73
2023/10/05 05:31:16;;;;;;;646.28;318.20;;;;;;;;;;4928690;29;20465;-73
2023/10/05 05:33:45;;;;;;;651.47;332.23;;;;;;;;;;4922020;29;20533;-73
2023/10/05 05:36:17;;;;;;;423.75;302.02;;;;;;;;;;4907362;29;20489;-74
2023/10/05 05:38:47;;;;;;;580.13;330.25;;;;;;;;;;4926845;29;20443;-73
2023/10/05 05:41:16;;;;;;;684.65;348.15;;;;;;;;;;4928554;29;20522;-73
2023/10/05 05:43:43;;;;;;;689.80;354.90;;;;;;;;;;4928783;29;20522;-73
2023/10/05 05:46:14;;;;;;;692.60;359.27;;;;;;;;;;4931682;29;21006;-73
2023/10/05 05:48:48;;;;;;;694.50;356.47;;;;;;;;;;4902903;29;20444;-73
2023/10/05 05:51:15;;;;;;;697.13;359.90;;;;;;;;;;4920604;29;20779;-73
2023/10/05 05:53:43;;;;;;;693.53;352.27;;;;;;;;;;4920183;29;20452;-73
2023/10/05 05:56:16;;;;;;;690.22;346.27;;;;;;;;;;4923371;29;20441;-74
2023/10/05 05:58:50;;;;;;;687.53;347.50;;;;;;;;;;4924411;29;21127;-73
2023/10/05 06:01:19;;;;;;;688.03;343.77;;;;;;;;;;4920230;29;20939;-73
2023/10/05 06:03:48;;;;;;;689.38;345.95;;;;;;;;;;4920769;29;20466;-74
2023/10/05 06:06:16;;;;;;;685.55;341.65;;;;;;;;;;4918558;29;20444;-73
2023/10/05 06:08:47;;;;;;;690.13;353.23;;;;;;;;;;4917423;29;20439;-74
2023/10/05 06:11:14;;;;;;;686.47;341.88;;;;;;;;;;4917707;29;20445;-73
2023/10/05 06:13:45;;;;;;;685.13;340.92;;;;;;;;;;4926820;29;20942;-73
2023/10/05 06:16:13;;;;;;;682.47;336.42;;;;;;;;;;4924221;29;20443;-73
2023/10/05 06:18:43;;;;;;;668.00;339.75;;;;;;;;;;4914249;29;20458;-73
2023/10/05 06:21:11;;;;;;;492.80;320.45;;;;;;;;;;4920497;29;21105;-73
2023/10/05 06:23:38;;;;;;;598.80;336.80;;;;;;;;;;4921213;29;20489;-74
2023/10/05 06:26:08;;;;;;;686.45;342.63;;;;;;;;;;4921821;29;20611;-73
2023/10/05 06:28:40;;;;;;;680.88;342.45;;;;;;;;;;4922075;29;20929;-73
2023/10/05 06:31:11;;;;;;;692.97;347.13;;;;;;;;;;4921968;29;20500;-73
2023/10/05 06:33:42;;;;;;;699.60;345.70;;;;;;;;;;4926851;29;20451;-73
2023/10/05 06:36:09;;;;;;;678.40;355.43;;;;;;;;;;4925449;29;20599;-74
2023/10/05 06:38:39;;;;;;;692.05;357.38;;;;;;;;;;4925948;29;20466;-74
2023/10/05 06:41:06;;;;;;;683.63;365.17;;;;;;;;;;4910257;29;20485;-73
2023/10/05 06:43:37;;;;;;;713.70;370.65;;;;;;;;;;4919948;29;20519;-74
2023/10/05 06:46:17;;;;;;;730.97;379.88;;;;;;;;;;4922176;29;20471;-74
2023/10/05 06:48:45;;;;;;;737.10;395.83;;;;;;;;;;4920546;29;20500;-74
2023/10/05 06:51:13;;;;;;;751.13;411.52;;;;;;;;;;4918886;29;20443;-74
2023/10/05 06:53:40;;;;;;;758.95;409.30;;;;;;;;;;4927835;29;20563;-74
2023/10/05 06:56:07;;;;;;;762.70;419.55;;;;;;;;;;4929569;29;20446;-73
2023/10/05 06:58:35;;;;;;;777.78;430.42;;;;;;;;;;4927874;29;20533;-75
2023/10/05 07:01:09;;;;;;;778.00;433.15;;;;;;;;;;4919651;29;20445;-74
2023/10/05 07:03:39;;;;;;;775.53;449.38;;;;;;;;;;4924791;29;20432;-74
2023/10/05 07:06:09;;;;;;;769.80;455.88;;;;;;;;;;4924730;29;20446;-74
2023/10/05 07:08:39;;;;;;;780.45;464.45;;;;;;;;;;4918818;29;20437;-75
2023/10/05 07:11:06;;;;;;;812.97;452.95;;;;;;;;;;4922625;29;20508;-74
2023/10/05 07:13:34;;;;;;;815.60;475.42;;;;;;;;;;4923167;29;20452;-74
2023/10/05 07:16:05;;;;;;;818.58;456.13;;;;;;;;;;4921822;29;20435;-74
2023/10/05 07:18:32;;;;;;;810.42;439.38;;;;;;;;;;4920734;29;20441;-74
2023/10/05 07:21:00;;;;;;;817.03;451.75;;;;;;;;;;4921189;29;20451;-74
2023/10/05 07:23:29;;;;;;;823.33;452.73;;;;;;;;;;4926975;29;20525;-74
2023/10/05 07:25:56;;;;;;;806.33;419.38;;;;;;;;;;4928633;29;21200;-76
2023/10/05 07:28:24;;;;;;;821.53;462.38;;;;;;;;;;4928686;29;20454;-75
2023/10/05 07:30:51;;;;;;;838.83;481.00;;;;;;;;;;4922327;29;20569;-74
2023/10/05 07:33:19;;;;;;;846.58;468.92;;;;;;;;;;4927028;29;20435;-74
2023/10/05 07:35:46;;;;;;;857.37;489.03;;;;;;;;;;4922111;29;20525;-74
2023/10/05 07:38:16;;;;;;;859.75;504.02;;;;;;;;;;4917444;29;20433;-75
2023/10/05 07:40:43;;;;;;;864.97;512.28;;;;;;;;;;4902378;29;20534;-75
2023/10/05 07:43:11;;;;;;;867.92;525.42;;;;;;;;;;4921531;29;20441;-74
2023/10/05 07:45:39;;;;;;;878.90;534.77;;;;;;;;;;4923497;29;20942;-75
2023/10/05 07:48:06;;;;;;;887.85;543.25;;;;;;;;;;4917095;29;20965;-75
2023/10/05 07:50:39;;;;;;;875.33;535.08;;;;;;;;;;4921278;29;20921;-74
2023/10/05 07:53:06;;;;;;;866.35;500.52;;;;;;;;;;4916774;29;20620;-75
2023/10/05 07:55:36;;;;;;;874.63;517.50;;;;;;;;;;4924660;29;20522;-74
2023/10/05 07:58:05;;;;;;;852.92;493.40;;;;;;;;;;4925484;29;20435;-74
2023/10/05 08:00:33;;;;;;;853.65;508.98;;;;;;;;;;4926651;29;20443;-74
2023/10/05 08:03:08;;;;;;;874.10;530.85;;;;;;;;;;4927523;29;20439;-75
2023/10/05 08:05:36;;;;;;;864.50;529.00;;;;;;;;;;4922588;29;20929;-74
2023/10/05 08:08:07;;;;;;;882.95;547.28;;;;;;;;;;4927827;29;20971;-75
2023/10/05 08:10:34;;;;;;;891.30;563.00;;;;;;;;;;4921717;29;20506;-76
2023/10/05 08:13:05;;;;;;;908.22;585.42;;;;;;;;;;4928389;29;20462;-75
2023/10/05 08:15:34;;;;;;;893.95;567.40;;;;;;;;;;4920724;29;20948;-76
2023/10/05 08:18:05;;;;;;;890.83;561.20;;;;;;;;;;4918623;29;20472;-76
2023/10/05 08:20:32;;;;;;;896.40;556.65;;;;;;;;;;4927947;29;20439;-75
2023/10/05 08:22:59;;;;;;;880.15;528.20;;;;;;;;;;4923673;29;20435;-75
2023/10/05 08:25:26;;;;;;;889.78;553.70;;;;;;;;;;4922532;29;20466;-74
2023/10/05 08:27:55;;;;;;;881.17;538.55;;;;;;;;;;4919272;29;20436;-75
2023/10/05 08:30:26;;;;;;;881.60;547.13;;;;;;;;;;4919439;29;20518;-75
2023/10/05 08:32:56;;;;;;;882.17;550.00;;;;;;;;;;4920369;29;20446;-75
2023/10/05 08:35:27;;;;;;;872.83;531.55;;;;;;;;;;4928914;29;20435;-75
2023/10/05 08:37:57;;;;;;;875.80;534.28;;;;;;;;;;4928536;29;20450;-75
2023/10/05 08:40:41;;;;;;;905.67;583.67;;;;;;;;;;4920469;29;20527;-75
2023/10/05 08:43:09;;;;;;;895.10;573.63;;;;;;;;;;4925290;29;21146;-75
2023/10/05 08:45:53;;;;;;;893.30;578.42;;;;;;;;;;4922091;29;20534;-75
2023/10/05 08:48:35;;;;;;;872.07;557.37;;;;;;;;;;4919291;29;20549;-75
2023/10/05 08:51:14;;;;;;;894.13;582.78;;;;;;;;;;4922958;29;20449;-75
2023/10/05 08:53:48;;;;;;;906.37;596.37;;;;;;;;;;4928298;29;20527;-75
2023/10/05 08:56:17;;;;;;;912.15;614.35;;;;;;;;;;4926785;29;20787;-75
2023/10/05 08:58:45;;;;;;;881.30;577.03;;;;;;;;;;4925984;29;20467;-74
2023/10/05 09:01:29;;;;;;;901.88;603.85;;;;;;;;;;4912310;29;20850;-75
2023/10/05 09:06:47;;;;;;;921.63;636.55;;;;;;;;;;4927334;29;20447;-75
2023/10/05 09:09:18;;;;;;;936.63;657.60;;;;;;;;;;4922888;29;20444;-75
2023/10/05 09:11:45;;;;;;;939.27;661.87;;;;;;;;;;4925248;29;20499;-75
2023/10/05 09:14:23;;;;;;;948.95;678.58;;;;;;;;;;4925616;29;20470;-75
2023/10/05 09:16:57;;;;;;;936.45;663.22;;;;;;;;;;4923573;29;20444;-75
2023/10/05 09:19:25;;;;;;;936.53;662.85;;;;;;;;;;4924688;29;20443;-75
2023/10/05 09:24:32;;;;;;;908.17;635.53;;;;;;;;;;4917629;29;20441;-75
2023/10/05 09:27:12;;;;;;;905.13;622.70;;;;;;;;;;4924849;29;20475;-74
2023/10/05 09:29:43;;;;;;;912.55;643.97;;;;;;;;;;4928448;29;20474;-75
2023/10/05 09:32:25;;;;;;;898.45;629.22;;;;;;;;;;4922025;29;20484;-74
2023/10/05 09:35:00;;;;;;;916.70;659.17;;;;;;;;;;4924058;29;21019;-75
2023/10/05 09:37:31;;;;;;;924.75;669.22;;;;;;;;;;4930081;29;20972;-75
2023/10/05 09:40:03;;;;;;;919.60;668.50;;;;;;;;;;4923435;29;20449;-74
2023/10/05 09:42:40;;;;;;;929.92;674.38;;;;;;;;;;4927581;29;20534;-73
2023/10/05 09:45:12;;;;;;;913.00;657.13;;;;;;;;;;4926005;29;20449;-74
2023/10/05 09:47:40;;;;;;;908.67;656.57;;;;;;;;;;4923376;29;20476;-74
2023/10/05 09:50:12;;;;;;;926.80;682.40;;;;;;;;;;4914119;29;20445;-73
2023/10/05 09:52:46;;;;;;;914.03;662.28;;;;;;;;;;4922017;29;20443;-73
2023/10/05 09:55:13;;;;;;;914.05;665.13;;;;;;;;;;4922565;29;20450;-74
2023/10/05 09:58:27;;;;;;;933.00;689.65;;;;;;;;;;4921549;29;20448;-74
2023/10/05 10:02:59;;;;;;;934.55;692.33;;;;;;;;;;4922299;29;20439;-74
2023/10/05 10:05:34;;;;;;;930.83;690.92;;;;;;;;;;4901631;29;20538;-74
2023/10/05 10:08:09;;;;;;;932.22;692.40;;;;;;;;;;4916764;29;20445;-73
2023/10/05 10:11:00;;;;;;;927.70;686.42;;;;;;;;;;4911558;29;20439;-74
2023/10/05 10:13:37;;;;;;;918.40;675.63;;;;;;;;;;4929838;29;20447;-73
2023/10/05 10:16:16;;;;;;;917.83;672.40;;;;;;;;;;4913717;29;21068;-73
2023/10/05 10:18:53;;;;;;;929.72;689.85;;;;;;;;;;4922664;29;20879;-73
2023/10/05 10:21:25;;;;;;;930.47;689.47;;;;;;;;;;4927170;29;20439;-73
2023/10/05 10:24:08;;;;;;;935.03;698.15;;;;;;;;;;4926487;29;20519;-74
2023/10/05 10:26:40;;;;;;;926.92;689.53;;;;;;;;;;4925688;29;20523;-74
2023/10/05 10:29:11;;;;;;;908.90;672.60;;;;;;;;;;4919757;29;20508;-75
2023/10/05 10:31:47;;;;;;;911.65;664.40;;;;;;;;;;4920659;29;20439;-74
2023/10/05 10:34:29;;;;;;;930.45;686.70;;;;;;;;;;4916523;29;20441;-74
2023/10/05 10:36:56;;;;;;;922.30;679.83;;;;;;;;;;4928495;29;20447;-73
2023/10/05 10:39:27;;;;;;;919.50;676.10;;;;;;;;;;4923041;29;20431;-74
2023/10/05 10:42:03;;;;;;;918.58;677.67;;;;;;;;;;4924537;29;20523;-73
2023/10/05 10:47:16;;;;;;;932.47;682.08;;;;;;;;;;4927374;29;20583;-74
2023/10/05 10:50:11;;;;;;;941.47;690.40;;;;;;;;;;4928470;29;20480;-73
2023/10/05 10:52:45;;;;;;;958.95;710.72;;;;;;;;;;4921830;29;20511;-73
2023/10/05 10:55:15;;;;;;;978.15;735.67;;;;;;;;;;4923028;29;20509;-73
2023/10/05 10:57:47;;;;;;;982.70;744.87;;;;;;;;;;4920053;29;20942;-73
2023/10/05 11:03:10;;;;;;;626.63;570.13;;;;;;;;;;4921060;29;20708;-73
2023/10/05 11:05:43;;;;;;;64.25;59.40;;;;;;;;;;4922986;29;20437;-74
2023/10/05 11:08:20;;;;;;;498.77;458.35;;;;;;;;;;4924978;29;20443;-73
2023/10/05 11:10:59;;;;;;;4.55;2.20;;;;;;;;;;4927019;29;20438;-73
2023/10/05 11:13:27;;;;;;;2.95;1.55;;;;;;;;;;4928997;29;20593;-73
2023/10/05 11:15:57;;;;;;;3.55;1.65;;;;;;;;;;4927671;29;20550;-73
2023/10/05 11:18:39;;;;;;;4.80;1.95;;;;;;;;;;4916808;29;20958;-74
2023/10/05 11:21:14;;;;;;;149.93;139.18;;;;;;;;;;4922718;29;20447;-73
2023/10/05 11:23:47;;;;;;;401.30;368.45;;;;;;;;;;4928279;29;20479;-73
2023/10/05 11:26:18;;;;;;;24.13;22.02;;;;;;;;;;4928130;29;20467;-73
2023/10/05 11:28:49;;;;;;;3.90;1.40;;;;;;;;;;4927024;29;20445;-73
2023/10/05 11:31:23;;;;;;;5.50;1.65;;;;;;;;;;4918173;29;20450;-73
2023/10/05 11:34:19;;;;;;;29.50;27.10;;;;;;;;;;4920166;29;21553;-73
2023/10/05 11:37:15;;;;;;;981.83;880.85;;;;;;;;;;4920786;29;20433;-73
2023/10/05 11:39:49;;;;;;;680.70;626.00;;;;;;;;;;4927349;29;20554;-74
2023/10/05 11:42:24;;;;;;;921.83;845.38;;;;;;;;;;4911858;29;20478;-73
2023/10/05 11:44:59;;;;;;;4.13;1.50;;;;;;;;;;4919878;29;20448;-73
2023/10/05 11:47:35;;;;;;;5.40;1.30;;;;;;;;;;4921415;29;20556;-73
2023/10/05 11:50:08;;;;;;;3.78;1.20;;;;;;;;;;4914473;29;20995;-73
2023/10/05 11:52:41;;;;;;;3.25;1.60;;;;;;;;;;4927522;29;20447;-74
2023/10/05 11:55:14;;;;;;;3.85;1.42;;;;;;;;;;4917741;29;20443;-73
2023/10/05 11:57:45;;;;;;;7.20;4.30;;;;;;;;;;4923533;29;20772;-74
2023/10/05 12:00:13;;;;;;;57.00;53.28;;;;;;;;;;4921455;29;20936;-73
2023/10/05 12:02:42;;;;;;;3.13;1.67;;;;;;;;;;4919161;29;20447;-73
2023/10/05 12:05:17;;;;;;;4.17;1.47;;;;;;;;;;4920801;29;20510;-73
2023/10/05 12:07:45;;;;;;;3.30;1.80;;;;;;;;;;4915786;29;20469;-74
2023/10/05 12:10:13;;;;;;;4.90;1.60;;;;;;;;;;4927651;29;20526;-73
2023/10/05 12:12:48;;;;;;;3.40;1.55;;;;;;;;;;4922205;29;20435;-74
2023/10/05 12:15:17;;;;;;;3.67;1.50;;;;;;;;;;4921922;29;20963;-74
2023/10/05 12:17:49;;;;;;;5.97;1.85;;;;;;;;;;4927899;29;20505;-73
2023/10/05 12:20:22;;;;;;;4.60;1.70;;;;;;;;;;4922087;29;20546;-73
2023/10/05 12:22:49;;;;;;;5.40;1.60;;;;;;;;;;4913686;29;20816;-73
2023/10/05 12:25:24;;;;;;;3.88;1.65;;;;;;;;;;4926134;29;20435;-73
2023/10/05 12:27:54;;;;;;;4.97;1.60;;;;;;;;;;4926437;29;20449;-72
2023/10/05 12:30:22;;;;;;;3.83;1.40;;;;;;;;;;4926058;29;20443;-73
2023/10/05 12:32:51;;;;;;;4.72;4.32;;;;;;;;;;4917855;29;21020;-73
2023/10/05 12:35:18;;;;;;;3.58;1.35;;;;;;;;;;4911593;29;20449;-73
2023/10/05 12:37:47;;;;;;;24.67;22.90;;;;;;;;;;4893934;29;20457;-74
2023/10/05 12:40:18;;;;;;;4.70;1.23;;;;;;;;;;4921890;29;20477;-73
2023/10/05 12:42:51;;;;;;;2.28;1.10;;;;;;;;;;4919107;29;20439;-73
2023/10/05 12:45:32;;;;;;;4.00;1.37;;;;;;;;;;4917650;29;20446;-73
2023/10/05 12:47:59;;;;;;;7.83;7.07;;;;;;;;;;4924966;29;20444;-73
2023/10/05 12:50:28;;;;;;;3.63;2.35;;;;;;;;;;4921834;29;20930;-73
2023/10/05 12:52:56;;;;;;;17.50;16.05;;;;;;;;;;4924480;29;20443;-73
2023/10/05 12:55:27;;;;;;;11.13;10.13;;;;;;;;;;4918160;29;20500;-73
2023/10/05 12:57:54;;;;;;;5.70;1.80;;;;;;;;;;4927637;29;20795;-73
2023/10/05 13:00:22;;;;;;;48.22;44.08;;;;;;;;;;4923760;29;20444;-73
2023/10/05 13:02:53;;;;;;;6.88;4.07;;;;;;;;;;4917913;29;20973;-73
2023/10/05 13:05:39;;;;;;;7.32;6.00;;;;;;;;;;4917133;29;21006;-73
2023/10/05 13:08:10;;;;;;;50.38;46.95;;;;;;;;;;4921132;29;20466;-72
2023/10/05 13:10:38;;;;;;;33.28;31.00;;;;;;;;;;4921348;29;20792;-73
2023/10/05 13:13:10;;;;;;;221.80;205.38;;;;;;;;;;4920995;29;20451;-71
2023/10/05 13:15:38;;;;;;;67.78;63.22;;;;;;;;;;4921289;29;21153;-73
2023/10/05 13:18:18;;;;;;;48.90;45.80;;;;;;;;;;4917043;29;21116;-73
2023/10/05 13:20:49;;;;;;;892.30;817.45;;;;;;;;;;4910645;29;20528;-73
2023/10/05 13:23:21;;;;;;;3.65;1.23;;;;;;;;;;4925458;29;20443;-73
2023/10/05 13:25:49;;;;;;;3.38;1.40;;;;;;;;;;4927329;29;20448;-73
2023/10/05 13:28:18;;;;;;;3.47;1.38;;;;;;;;;;4920467;29;20535;-73
2023/10/05 13:30:50;;;;;;;4.38;1.52;;;;;;;;;;4919779;29;20439;-73
2023/10/05 13:33:22;;;;;;;474.55;402.38;;;;;;;;;;4921826;29;20506;-73
2023/10/05 13:35:51;;;;;;;875.08;725.35;;;;;;;;;;4918796;29;21340;-73
2023/10/05 13:38:24;;;;;;;927.35;762.83;;;;;;;;;;4923839;29;20984;-73
2023/10/05 13:40:57;;;;;;;962.50;721.70;;;;;;;;;;4928342;29;20443;-73
2023/10/05 13:43:29;;;;;;;935.67;758.30;;;;;;;;;;4924946;29;20974;-74
2023/10/05 13:45:59;;;;;;;905.80;805.67;;;;;;;;;;4926555;29;21141;-73
2023/10/05 13:48:29;;;;;;;933.25;707.55;;;;;;;;;;4925586;29;20443;-73
2023/10/05 13:50:56;;;;;;;930.28;842.28;;;;;;;;;;4926850;29;20570;-73
2023/10/05 13:53:24;;;;;;;928.13;842.73;;;;;;;;;;4926332;29;20575;-73
2023/10/05 13:55:51;;;;;;;918.78;834.55;;;;;;;;;;4923062;29;20439;-73
2023/10/05 13:58:20;;;;;;;955.60;870.38;;;;;;;;;;4923665;29;20447;-73
2023/10/05 14:00:49;;;;;;;958.60;872.83;;;;;;;;;;4923516;29;20450;-73
2023/10/05 14:03:16;;;;;;;960.05;874.40;;;;;;;;;;4926066;29;20443;-73
2023/10/05 14:05:50;;;;;;;854.47;778.73;;;;;;;;;;4918987;29;20943;-73
2023/10/05 14:08:21;;;;;;;681.38;618.63;;;;;;;;;;4925861;29;20515;-73
2023/10/05 14:10:48;;;;;;;439.63;239.98;;;;;;;;;;4924880;29;20441;-74
2023/10/05 14:13:17;;;;;;;520.13;440.55;;;;;;;;;;4925035;29;20865;-72
2023/10/05 14:15:47;;;;;;;599.38;493.77;;;;;;;;;;4929724;29;20537;-73
2023/10/05 14:18:16;;;;;;;947.13;678.33;;;;;;;;;;4921021;29;20800;-73
2023/10/05 14:20:47;;;;;;;960.40;701.40;;;;;;;;;;4925941;29;21055;-74
2023/10/05 14:23:18;;;;;;;931.35;670.42;;;;;;;;;;4927720;29;20435;-73
2023/10/05 14:25:46;;;;;;;969.75;721.65;;;;;;;;;;4923913;29;20435;-72
2023/10/05 14:28:23;;;;;;;980.05;790.58;;;;;;;;;;4924672;29;20440;-73
2023/10/05 14:30:50;;;;;;;945.05;689.60;;;;;;;;;;4927442;29;20439;-73
2023/10/05 14:33:18;;;;;;;869.80;749.92;;;;;;;;;;4915744;29;20600;-73
2023/10/05 14:35:45;;;;;;;977.43;742.90;;;;;;;;;;4918521;29;20777;-73
2023/10/05 14:38:16;;;;;;;912.38;769.42;;;;;;;;;;4904498;29;20455;-72
2023/10/05 14:40:50;;;;;;;779.88;709.25;;;;;;;;;;4923340;29;20974;-73
2023/10/05 14:43:28;;;;;;;186.88;171.88;;;;;;;;;;4929009;29;20463;-73
2023/10/05 14:45:58;;;;;;;626.90;572.55;;;;;;;;;;4903863;29;20440;-74
2023/10/05 14:48:29;;;;;;;611.85;558.63;;;;;;;;;;4920450;29;20441;-73
2023/10/05 14:51:01;;;;;;;213.48;197.02;;;;;;;;;;4924209;29;20532;-73
2023/10/05 14:53:29;;;;;;;4.20;1.33;;;;;;;;;;4912259;29;20454;-73